createdAt,value
2018-07-25T00:01:52.745Z,2.57
2018-07-25T00:04:21.352Z,2.70
2018-07-25T00:06:49.662Z,3.03
2018-07-25T00:09:17.995Z,2.80
2018-07-25T00:11:46.366Z,2.40
2018-07-25T00:14:14.744Z,2.87
2018-07-25T00:16:43.060Z,2.30
2018-07-25T00:19:11.695Z,2.60
2018-07-25T00:21:40.024Z,2.67
2018-07-25T00:24:08.390Z,3.33
2018-07-25T00:26:36.703Z,2.47
2018-07-25T00:29:05.011Z,2.60
2018-07-25T00:31:33.408Z,2.73
2018-07-25T00:34:01.835Z,2.70
2018-07-25T00:36:30.185Z,2.73
2018-07-25T00:38:58.551Z,3.23
2018-07-25T00:41:26.980Z,2.90
2018-07-25T00:43:55.346Z,3.07
2018-07-25T00:46:23.668Z,2.67
2018-07-25T00:48:52.032Z,2.60
2018-07-25T00:51:20.384Z,3.50
2018-07-25T00:53:48.725Z,3.20
2018-07-25T00:56:17.058Z,3.40
2018-07-25T00:58:48.365Z,2.90
2018-07-25T01:01:16.744Z,2.80
2018-07-25T01:03:45.129Z,2.90
2018-07-25T01:06:13.446Z,2.90
2018-07-25T01:08:41.806Z,3.17
2018-07-25T01:11:10.120Z,3.03
2018-07-25T01:13:38.461Z,3.33
2018-07-25T01:16:07.223Z,2.57
2018-07-25T01:18:35.575Z,3.50
2018-07-25T01:21:04.001Z,2.83
2018-07-25T01:23:32.561Z,3.23
2018-07-25T01:26:00.955Z,3.27
2018-07-25T01:28:29.314Z,2.97
2018-07-25T01:30:57.707Z,3.20
2018-07-25T01:33:26.071Z,3.00
2018-07-25T01:35:54.428Z,3.17
2018-07-25T01:38:22.812Z,2.97
2018-07-25T01:40:51.165Z,3.33
2018-07-25T01:43:19.522Z,3.57
2018-07-25T01:45:47.975Z,3.10
2018-07-25T01:48:16.306Z,3.07
2018-07-25T01:50:44.654Z,3.10
2018-07-25T01:53:13.006Z,3.40
2018-07-25T01:55:41.390Z,3.17
2018-07-25T01:58:09.699Z,3.07
2018-07-25T02:00:38.360Z,3.37
2018-07-25T02:03:07.320Z,3.27
2018-07-25T02:05:35.637Z,3.70
2018-07-25T02:08:04.057Z,3.80
2018-07-25T02:10:36.562Z,3.40
2018-07-25T02:13:04.880Z,3.57
2018-07-25T02:15:33.730Z,3.40
2018-07-25T02:18:02.121Z,3.43
2018-07-25T02:20:31.525Z,3.70
2018-07-25T02:23:00.326Z,3.37
2018-07-25T02:25:29.063Z,3.63
2018-07-25T02:27:57.397Z,3.87
2018-07-25T02:30:25.927Z,3.40
2018-07-25T02:32:54.226Z,3.40
2018-07-25T02:35:22.527Z,3.67
2018-07-25T02:37:50.833Z,3.23
2018-07-25T02:40:19.663Z,3.60
2018-07-25T02:42:48.258Z,3.40
2018-07-25T02:45:16.811Z,3.43
2018-07-25T02:47:45.385Z,3.93
2018-07-25T02:50:13.989Z,3.40
2018-07-25T02:52:42.348Z,3.80
2018-07-25T02:55:11.219Z,3.80
2018-07-25T02:57:39.584Z,3.60
2018-07-25T03:00:08.120Z,3.60
2018-07-25T03:02:36.449Z,3.73
2018-07-25T03:05:05.312Z,3.70
2018-07-25T03:07:34.600Z,3.70
2018-07-25T03:10:03.869Z,3.40
2018-07-25T03:12:32.235Z,3.97
2018-07-25T03:15:00.534Z,3.73
2018-07-25T03:17:28.859Z,3.50
2018-07-25T03:19:57.176Z,3.80
2018-07-25T03:22:25.919Z,3.90
2018-07-25T03:24:54.255Z,3.63
2018-07-25T03:27:22.615Z,3.80
2018-07-25T03:29:51.549Z,3.30
2018-07-25T03:32:20.903Z,4.13
2018-07-25T03:34:49.312Z,4.37
2018-07-25T03:37:18.015Z,3.83
2018-07-25T03:39:46.346Z,3.70
2018-07-25T03:42:14.689Z,4.10
2018-07-25T03:44:42.991Z,4.00
2018-07-25T03:47:11.535Z,3.90
2018-07-25T03:49:39.959Z,4.23
2018-07-25T03:52:08.264Z,4.53
2018-07-25T03:54:36.584Z,3.90
2018-07-25T03:57:05.114Z,4.20
2018-07-25T03:59:33.453Z,3.93
2018-07-25T04:02:01.857Z,3.87
2018-07-25T04:04:31.155Z,4.33
2018-07-25T04:06:59.460Z,3.87
2018-07-25T04:09:29.097Z,4.30
2018-07-25T04:11:57.445Z,4.50
2018-07-25T04:14:26.043Z,4.17
2018-07-25T04:16:54.457Z,4.60
2018-07-25T04:19:22.788Z,4.60
2018-07-25T04:21:51.143Z,5.03
2018-07-25T04:24:19.432Z,4.47
2018-07-25T04:26:48.009Z,5.23
2018-07-25T04:29:16.343Z,4.40
2018-07-25T04:31:46.726Z,5.00
2018-07-25T04:34:15.231Z,5.07
2018-07-25T04:36:43.890Z,4.67
2018-07-25T04:39:15.616Z,5.30
2018-07-25T04:41:44.104Z,5.43
2018-07-25T04:44:12.433Z,4.83
2018-07-25T04:46:40.806Z,5.03
2018-07-25T04:49:09.138Z,5.10
2018-07-25T04:51:37.492Z,5.03
2018-07-25T04:54:05.854Z,5.00
2018-07-25T04:56:34.450Z,4.70
2018-07-25T04:59:03.122Z,4.70
2018-07-25T05:01:31.799Z,4.97
2018-07-25T05:04:00.153Z,4.57
2018-07-25T05:06:28.575Z,4.20
2018-07-25T05:08:56.896Z,4.30
2018-07-25T05:11:25.296Z,4.90
2018-07-25T05:13:53.609Z,4.53
2018-07-25T05:16:21.972Z,4.30
2018-07-25T05:18:50.378Z,4.40
2018-07-25T05:21:18.701Z,4.23
2018-07-25T05:23:47.024Z,4.73
2018-07-25T05:26:15.377Z,4.07
2018-07-25T05:28:43.696Z,4.47
2018-07-25T05:31:12.044Z,4.20
2018-07-25T05:33:40.608Z,3.93
2018-07-25T05:36:07.908Z,4.50
2018-07-25T05:38:36.399Z,3.83
2018-07-25T05:41:05.085Z,4.20
2018-07-25T05:43:33.501Z,4.27
2018-07-25T05:46:01.852Z,4.10
2018-07-25T05:48:30.308Z,4.67
2018-07-25T05:50:58.869Z,4.50
2018-07-25T05:53:27.167Z,4.70
2018-07-25T05:55:55.499Z,4.53
2018-07-25T05:58:23.811Z,4.17
2018-07-25T06:00:52.191Z,4.10
2018-07-25T06:03:20.543Z,3.97
2018-07-25T06:05:48.935Z,3.90
2018-07-25T06:08:17.213Z,3.65
2018-07-25T06:10:45.597Z,3.85
2018-07-25T06:13:14.040Z,3.58
2018-07-25T06:15:43.437Z,3.83
2018-07-25T06:18:15.493Z,3.62
2018-07-25T06:20:43.948Z,3.40
2018-07-25T06:23:13.153Z,3.45
2018-07-25T06:25:42.624Z,3.98
2018-07-25T06:28:11.087Z,3.37
2018-07-25T06:30:39.562Z,3.60
2018-07-25T06:33:08.024Z,3.50
2018-07-25T06:35:36.361Z,3.30
2018-07-25T06:38:04.755Z,3.40
2018-07-25T06:40:33.318Z,3.67
2018-07-25T06:43:01.744Z,3.45
2018-07-25T06:45:30.200Z,3.58
2018-07-25T06:47:58.566Z,3.30
2018-07-25T06:50:27.420Z,3.35
2018-07-25T06:52:56.043Z,3.20
2018-07-25T06:55:24.497Z,3.27
2018-07-25T06:57:53.100Z,3.60
2018-07-25T07:00:21.667Z,3.20
2018-07-25T07:02:50.068Z,3.15
2018-07-25T07:05:18.376Z,3.83
2018-07-25T07:07:46.726Z,3.55
2018-07-25T07:10:15.077Z,3.30
2018-07-25T07:12:43.403Z,3.40
2018-07-25T07:15:13.012Z,3.50
2018-07-25T07:17:42.068Z,3.37
2018-07-25T07:20:10.548Z,3.55
2018-07-25T07:22:38.908Z,3.65
2018-07-25T07:25:09.740Z,4.08
2018-07-25T07:27:43.343Z,3.77
2018-07-25T07:30:11.671Z,3.42
2018-07-25T07:32:40.003Z,3.42
2018-07-25T07:35:08.365Z,3.70
2018-07-25T07:37:37.751Z,3.55
2018-07-25T07:40:06.077Z,3.60
2018-07-25T07:42:34.458Z,3.62
2018-07-25T07:45:02.837Z,3.58
2018-07-25T07:47:31.248Z,3.40
2018-07-25T07:49:59.530Z,3.08
2018-07-25T07:52:27.855Z,2.90
2018-07-25T07:54:56.178Z,3.37
2018-07-25T07:57:24.537Z,3.22
2018-07-25T07:59:52.963Z,3.30
2018-07-25T08:02:21.385Z,2.98
2018-07-25T08:04:49.724Z,3.17
2018-07-25T08:07:18.001Z,2.62
2018-07-25T08:09:46.341Z,2.58
2018-07-25T08:12:15.196Z,3.30
2018-07-25T08:14:43.489Z,2.92
2018-07-25T08:17:11.843Z,2.85
2018-07-25T08:19:40.243Z,3.12
2018-07-25T08:22:08.847Z,3.00
2018-07-25T08:24:37.182Z,2.83
2018-07-25T08:27:05.555Z,2.85
2018-07-25T08:29:33.891Z,3.10
2018-07-25T08:32:02.271Z,2.47
2018-07-25T08:34:30.624Z,1.65
2018-07-25T08:36:58.969Z,2.10
2018-07-25T08:39:27.293Z,1.70
2018-07-25T08:41:55.578Z,1.90
2018-07-25T08:44:23.914Z,2.37
2018-07-25T08:46:52.302Z,1.90
2018-07-25T08:49:20.585Z,2.20
2018-07-25T08:51:48.883Z,2.35
2018-07-25T08:54:17.200Z,2.85
2018-07-25T08:56:45.546Z,2.85
2018-07-25T08:59:13.954Z,2.40
2018-07-25T09:01:42.340Z,2.37
2018-07-25T09:04:10.816Z,2.15
2018-07-25T09:06:39.532Z,2.45
2018-07-25T09:09:10.313Z,2.60
2018-07-25T09:11:38.763Z,2.52
2018-07-25T09:14:07.187Z,2.85
2018-07-25T09:16:35.610Z,2.30
2018-07-25T09:19:04.354Z,2.72
2018-07-25T09:21:33.153Z,2.60
2018-07-25T09:24:01.627Z,2.58
2018-07-25T09:26:30.253Z,2.60
2018-07-25T09:28:58.747Z,2.60
2018-07-25T09:31:27.324Z,2.58
2018-07-25T09:33:55.929Z,3.58
2018-07-25T09:36:24.581Z,2.50
2018-07-25T09:38:53.151Z,2.45
2018-07-25T09:41:21.851Z,2.77
2018-07-25T09:43:50.433Z,2.72
2018-07-25T09:46:19.058Z,2.70
2018-07-25T09:48:47.515Z,2.12
2018-07-25T09:51:16.012Z,2.62
2018-07-25T09:53:44.490Z,2.50
2018-07-25T09:56:13.167Z,2.52
2018-07-25T09:58:42.552Z,2.83
2018-07-25T10:01:11.131Z,2.58
2018-07-25T10:03:39.688Z,2.27
2018-07-25T10:06:08.247Z,2.52
2018-07-25T10:08:36.718Z,2.58
2018-07-25T10:11:05.463Z,2.98
2018-07-25T10:13:34.103Z,3.05
2018-07-25T10:16:02.781Z,2.98
2018-07-25T10:18:31.305Z,2.80
2018-07-25T10:20:59.907Z,2.90
2018-07-25T10:23:28.535Z,2.50
2018-07-25T10:25:57.869Z,3.12
2018-07-25T10:28:26.581Z,2.60
2018-07-25T10:30:55.198Z,2.30
2018-07-25T10:33:23.735Z,2.10
2018-07-25T10:35:52.502Z,2.47
2018-07-25T10:38:21.203Z,2.65
2018-07-25T10:40:49.879Z,2.60
2018-07-25T10:43:18.386Z,2.27
2018-07-25T10:45:47.937Z,2.60
2018-07-25T10:48:16.394Z,2.27
2018-07-25T10:50:45.039Z,2.25
2018-07-25T10:53:13.599Z,2.62
2018-07-25T10:55:42.117Z,2.30
2018-07-25T10:58:10.667Z,2.27
2018-07-25T11:00:39.150Z,2.60
2018-07-25T11:03:07.856Z,2.60
2018-07-25T11:05:36.354Z,2.55
2018-07-25T11:08:04.927Z,2.40
2018-07-25T11:10:33.508Z,2.40
2018-07-25T11:13:02.073Z,2.40
2018-07-25T11:15:30.751Z,2.52
2018-07-25T11:17:59.495Z,2.80
2018-07-25T11:20:28.075Z,2.50
2018-07-25T11:22:56.604Z,2.70
2018-07-25T11:25:25.125Z,2.65
2018-07-25T11:27:53.700Z,2.70
2018-07-25T11:30:22.219Z,2.50
2018-07-25T11:32:50.806Z,2.30
2018-07-25T11:35:19.431Z,2.40
2018-07-25T11:37:47.925Z,2.27
2018-07-25T11:40:16.502Z,2.33
2018-07-25T11:42:45.023Z,2.72
2018-07-25T11:45:13.477Z,2.50
2018-07-25T11:47:41.848Z,2.12
2018-07-25T11:50:10.708Z,2.30
2018-07-25T11:52:39.733Z,2.12
2018-07-25T11:55:08.206Z,2.65
2018-07-25T11:57:36.687Z,2.80
2018-07-25T12:00:05.374Z,2.40
2018-07-25T12:02:33.902Z,2.22
2018-07-25T12:05:02.922Z,2.58
2018-07-25T12:07:31.403Z,2.50
2018-07-25T12:09:59.973Z,2.90
2018-07-25T12:12:28.498Z,2.40
2018-07-25T12:14:57.434Z,2.33
2018-07-25T12:17:25.953Z,2.00
2018-07-25T12:19:54.551Z,2.37
2018-07-25T12:22:23.153Z,2.55
2018-07-25T12:24:51.634Z,2.30
2018-07-25T12:27:20.107Z,2.30
2018-07-25T12:29:48.763Z,2.17
2018-07-25T12:32:18.040Z,2.12
2018-07-25T12:34:46.731Z,2.40
2018-07-25T12:37:15.844Z,2.80
2018-07-25T12:39:44.321Z,2.55
2018-07-25T12:42:12.770Z,2.30
2018-07-25T12:44:42.427Z,2.15
2018-07-25T12:47:11.011Z,2.20
2018-07-25T12:49:39.788Z,2.37
2018-07-25T12:52:08.766Z,2.20
2018-07-25T12:54:37.378Z,2.17
2018-07-25T12:57:05.950Z,2.60
2018-07-25T12:59:34.622Z,2.20
2018-07-25T13:02:03.237Z,2.10
2018-07-25T13:04:31.749Z,2.40
2018-07-25T13:07:00.119Z,2.80
2018-07-25T13:09:28.524Z,2.20
2018-07-25T13:11:56.927Z,2.45
2018-07-25T13:14:25.738Z,2.65
2018-07-25T13:16:54.449Z,2.40
2018-07-25T13:19:23.018Z,2.60
2018-07-25T13:21:51.520Z,2.65
2018-07-25T13:24:20.043Z,2.10
2018-07-25T13:26:48.851Z,2.10
2018-07-25T13:29:17.240Z,2.35
2018-07-25T13:31:45.714Z,1.90
2018-07-25T13:34:14.186Z,2.37
2018-07-25T13:36:42.798Z,1.80
2018-07-25T13:39:11.167Z,2.20
2018-07-25T13:41:39.704Z,2.05
2018-07-25T13:44:08.423Z,2.10
2018-07-25T13:46:36.898Z,1.80
2018-07-25T13:49:05.477Z,2.10
2018-07-25T13:51:34.889Z,1.90
2018-07-25T13:54:04.110Z,2.17
2018-07-25T13:56:32.618Z,2.35
2018-07-25T13:59:01.006Z,1.82
2018-07-25T14:01:29.480Z,1.77
2018-07-25T14:03:57.963Z,2.22
2018-07-25T14:06:27.886Z,1.95
2018-07-25T14:08:56.355Z,1.77
2018-07-25T14:11:24.996Z,2.20
2018-07-25T14:13:54.685Z,1.87
2018-07-25T14:16:23.121Z,2.20
2018-07-25T14:18:51.667Z,1.80
2018-07-25T14:21:21.536Z,1.70
2018-07-25T14:23:50.045Z,1.87
2018-07-25T14:26:18.340Z,1.80
2018-07-25T14:28:47.078Z,1.60
2018-07-25T14:31:15.467Z,1.90
2018-07-25T14:33:43.926Z,1.98
2018-07-25T14:36:12.462Z,2.00
2018-07-25T14:38:40.791Z,1.80
2018-07-25T14:41:09.286Z,1.80
2018-07-25T14:43:37.884Z,1.80
2018-07-25T14:46:07.126Z,2.00
2018-07-25T14:48:35.780Z,2.20
2018-07-25T14:51:04.263Z,1.98
2018-07-25T14:53:33.466Z,1.87
2018-07-25T14:56:05.559Z,1.90
2018-07-25T14:58:35.854Z,1.47
2018-07-25T15:01:05.106Z,1.55
2018-07-25T15:03:33.528Z,1.70
2018-07-25T15:06:02.307Z,1.52
2018-07-25T15:08:31.057Z,1.52
2018-07-25T15:10:59.551Z,1.67
2018-07-25T15:13:28.455Z,2.05
2018-07-25T15:15:57.275Z,1.62
2018-07-25T15:18:27.352Z,1.40
2018-07-25T15:20:56.733Z,1.77
2018-07-25T15:23:36.449Z,1.62
2018-07-25T15:26:06.334Z,1.55
2018-07-25T15:28:36.735Z,1.57
2018-07-25T15:31:05.765Z,1.60
2018-07-25T15:33:35.484Z,2.08
2018-07-25T15:36:04.054Z,2.02
2018-07-25T15:38:35.054Z,1.80
2018-07-25T15:41:05.519Z,1.40
2018-07-25T15:43:34.412Z,1.27
2018-07-25T15:46:03.472Z,1.52
2018-07-25T15:48:31.867Z,1.62
2018-07-25T15:51:01.756Z,1.67
2018-07-25T15:53:30.250Z,1.82
2018-07-25T15:55:59.038Z,2.10
2018-07-25T15:58:27.417Z,1.80
2018-07-25T16:00:57.591Z,2.02
2018-07-25T16:03:29.437Z,1.60
2018-07-25T16:05:58.746Z,1.98
2018-07-25T16:08:28.400Z,1.82
2018-07-25T16:10:58.266Z,1.77
2018-07-25T16:13:27.319Z,1.70
2018-07-25T16:15:57.866Z,2.00
2018-07-25T16:18:32.507Z,1.47
2018-07-25T16:21:04.919Z,1.60
2018-07-25T16:23:35.211Z,1.70
2018-07-25T16:26:06.544Z,1.85
2018-07-25T16:28:35.293Z,1.55
2018-07-25T16:31:04.755Z,1.80
2018-07-25T16:33:34.727Z,1.60
2018-07-25T16:36:03.293Z,1.70
2018-07-25T16:38:32.774Z,1.95
2018-07-25T16:41:03.017Z,1.70
2018-07-25T16:43:32.973Z,1.50
2018-07-25T16:46:04.785Z,1.80
2018-07-25T16:48:37.249Z,1.70
2018-07-25T16:51:07.527Z,1.80
2018-07-25T16:53:38.541Z,1.92
2018-07-25T16:56:07.726Z,1.50
2018-07-25T16:58:37.677Z,2.10
2018-07-25T17:01:06.889Z,1.70
2018-07-25T17:03:35.928Z,1.90
2018-07-25T17:06:04.960Z,1.72
2018-07-25T17:08:33.412Z,1.70
2018-07-25T17:11:02.262Z,1.45
2018-07-25T17:13:31.664Z,1.87
2018-07-25T17:16:00.849Z,1.62
2018-07-25T17:18:29.838Z,1.42
2018-07-25T17:20:58.563Z,1.40
2018-07-25T17:23:27.452Z,1.82
2018-07-25T17:25:57.257Z,1.70
2018-07-25T17:28:25.851Z,1.50
2018-07-25T17:30:54.926Z,1.67
2018-07-25T17:33:24.078Z,1.75
2018-07-25T17:35:52.966Z,1.98
2018-07-25T17:38:22.050Z,1.70
2018-07-25T17:40:50.974Z,2.20
2018-07-25T17:43:19.976Z,1.82
2018-07-25T17:45:50.265Z,1.40
2018-07-25T17:48:18.932Z,1.75
2018-07-25T17:50:48.085Z,1.60
2018-07-25T17:53:16.662Z,1.60
2018-07-25T17:55:45.389Z,1.40
2018-07-25T17:58:14.666Z,1.87
2018-07-25T18:00:43.241Z,1.70
2018-07-25T18:03:12.449Z,1.90
2018-07-25T18:05:41.429Z,2.10
2018-07-25T18:08:10.139Z,1.67
2018-07-25T18:10:39.065Z,1.72
2018-07-25T18:14:16.951Z,1.75
2018-07-25T18:16:46.155Z,1.82
2018-07-25T18:19:16.023Z,1.92
2018-07-25T18:21:44.627Z,1.67
2018-07-25T18:24:13.715Z,2.02
2018-07-25T18:26:42.298Z,1.47
2018-07-25T18:29:11.181Z,2.33
2018-07-25T18:31:40.259Z,2.00
2018-07-25T18:34:09.150Z,1.60
2018-07-25T18:36:37.855Z,2.20
2018-07-25T18:39:09.551Z,1.87
2018-07-25T18:41:38.598Z,1.90
2018-07-25T18:44:07.374Z,1.50
2018-07-25T18:46:36.086Z,2.00
2018-07-25T18:49:04.645Z,1.87
2018-07-25T18:51:33.360Z,2.00
2018-07-25T18:54:02.035Z,1.95
2018-07-25T18:56:31.024Z,2.17
2018-07-25T18:58:59.740Z,1.98
2018-07-25T19:01:28.426Z,2.17
2018-07-25T19:03:56.835Z,1.80
2018-07-25T19:06:25.393Z,2.10
2018-07-25T19:08:54.021Z,1.80
2018-07-25T19:11:22.872Z,2.20
2018-07-25T19:13:56.524Z,2.30
2018-07-25T19:16:25.044Z,2.75
2018-07-25T19:18:53.523Z,2.65
2018-07-25T19:21:23.290Z,2.50
2018-07-25T19:23:52.393Z,2.65
2018-07-25T19:26:21.112Z,1.98
2018-07-25T19:28:49.651Z,2.12
2018-07-25T19:31:18.648Z,2.27
2018-07-25T19:33:47.506Z,2.72
2018-07-25T19:36:16.660Z,2.02
2018-07-25T19:38:45.518Z,2.55
2018-07-25T19:41:14.972Z,3.30
2018-07-25T19:43:43.840Z,2.90
2018-07-25T19:46:12.703Z,2.60
2018-07-25T19:48:41.347Z,2.42
2018-07-25T19:51:10.288Z,2.60
2018-07-25T19:53:39.105Z,2.20
2018-07-25T19:56:07.765Z,2.58
2018-07-25T19:58:36.275Z,3.00
2018-07-25T20:01:04.899Z,2.50
2018-07-25T20:03:33.439Z,2.72
2018-07-25T20:06:02.943Z,2.30
2018-07-25T20:08:31.562Z,2.15
2018-07-25T20:11:00.066Z,2.50
2018-07-25T20:13:31.230Z,2.10
2018-07-25T20:16:00.923Z,2.40
2018-07-25T20:18:30.463Z,2.60
2018-07-25T20:20:59.459Z,2.60
2018-07-25T20:23:28.576Z,2.50
2018-07-25T20:25:56.937Z,2.55
2018-07-25T20:28:25.551Z,2.58
2018-07-25T20:30:54.226Z,2.25
2018-07-25T20:33:22.696Z,2.98
2018-07-25T20:35:51.144Z,2.62
2018-07-25T20:38:19.597Z,2.35
2018-07-25T20:40:48.194Z,2.35
2018-07-25T20:43:16.603Z,2.50
2018-07-25T20:45:45.282Z,2.58
2018-07-25T20:48:13.742Z,2.35
2018-07-25T20:50:42.113Z,2.30
2018-07-25T20:53:10.669Z,1.98
2018-07-25T20:55:39.166Z,2.62
2018-07-25T20:58:07.758Z,2.45
2018-07-25T21:00:36.768Z,2.27
2018-07-25T21:03:06.814Z,2.50
2018-07-25T21:05:35.536Z,2.25
2018-07-25T21:08:04.003Z,2.75
2018-07-25T21:10:34.177Z,2.67
2018-07-25T21:13:04.673Z,2.12
2018-07-25T21:15:34.321Z,2.40
2018-07-25T21:18:03.090Z,2.05
2018-07-25T21:20:31.406Z,2.33
2018-07-25T21:22:59.754Z,2.22
2018-07-25T21:25:30.067Z,2.20
2018-07-25T21:27:58.726Z,2.22
2018-07-25T21:30:27.354Z,2.45
2018-07-25T21:32:58.503Z,2.30
2018-07-25T21:35:26.803Z,2.50
2018-07-25T21:37:57.782Z,2.10
2018-07-25T21:40:26.162Z,2.40
2018-07-25T21:42:54.808Z,2.60
2018-07-25T21:45:23.162Z,2.10
2018-07-25T21:47:53.843Z,2.40
2018-07-25T21:50:22.830Z,2.75
2018-07-25T21:52:51.830Z,2.35
2018-07-25T21:55:20.430Z,2.47
2018-07-25T21:57:49.039Z,2.55
2018-07-25T22:00:17.830Z,2.42
2018-07-25T22:02:47.008Z,2.37
2018-07-25T22:05:15.606Z,2.70
2018-07-25T22:07:45.306Z,2.75
2018-07-25T22:10:13.699Z,3.45
2018-07-25T22:12:42.414Z,2.58
2018-07-25T22:15:12.086Z,2.62
2018-07-25T22:17:40.452Z,2.50
2018-07-25T22:20:11.696Z,2.50
2018-07-25T22:22:40.865Z,2.45
2018-07-25T22:25:09.918Z,2.40
2018-07-25T22:27:40.829Z,2.70
2018-07-25T22:30:09.365Z,2.42
2018-07-25T22:32:37.783Z,2.30
2018-07-25T22:35:07.173Z,2.52
2018-07-25T22:37:36.725Z,3.02
2018-07-25T22:40:05.389Z,2.87
2018-07-25T22:42:34.403Z,2.22
2018-07-25T22:45:03.271Z,2.62
2018-07-25T22:47:31.631Z,2.70
2018-07-25T22:50:00.242Z,2.92
2018-07-25T22:52:29.245Z,2.60
2018-07-25T22:54:58.256Z,2.47
2018-07-25T22:57:27.110Z,2.60
2018-07-25T22:59:56.230Z,2.60
2018-07-25T23:02:24.583Z,2.40
2018-07-25T23:04:53.446Z,2.53
2018-07-25T23:07:22.231Z,2.60
2018-07-25T23:09:50.752Z,2.47
2018-07-25T23:12:19.738Z,2.47
2018-07-25T23:14:48.567Z,3.30
2018-07-25T23:17:16.936Z,2.70
2018-07-25T23:19:46.355Z,2.57
2018-07-25T23:22:15.138Z,2.57
2018-07-25T23:24:44.828Z,2.40
2018-07-25T23:27:13.466Z,2.40
2018-07-25T23:29:41.883Z,2.60
2018-07-25T23:32:14.726Z,2.40
2018-07-25T23:34:43.837Z,2.63
2018-07-25T23:37:12.278Z,2.43
2018-07-25T23:39:40.576Z,2.70
2018-07-25T23:42:08.890Z,2.53
2018-07-25T23:44:37.277Z,2.97
2018-07-25T23:47:05.636Z,2.60
2018-07-25T23:49:33.976Z,2.47
2018-07-25T23:52:02.348Z,2.58
2018-07-25T23:54:30.657Z,2.10
2018-07-25T23:56:59.049Z,2.40
2018-07-25T23:59:27.398Z,2.57
